createdAt,value
2017-09-24T00:02:50.753Z,99.90
2017-09-24T00:05:56.056Z,99.90
2017-09-24T00:09:01.244Z,99.90
2017-09-24T00:12:06.541Z,99.90
2017-09-24T00:15:11.804Z,99.90
2017-09-24T00:18:16.924Z,99.90
2017-09-24T00:21:21.644Z,99.90
2017-09-24T00:24:27.878Z,99.90
2017-09-24T00:27:32.791Z,99.90
2017-09-24T00:30:39.109Z,99.90
2017-09-24T00:33:44.732Z,99.90
2017-09-24T00:36:50.573Z,99.90
2017-09-24T00:39:55.799Z,99.90
2017-09-24T00:43:01.172Z,99.90
2017-09-24T00:46:06.512Z,99.90
2017-09-24T00:49:12.760Z,99.90
2017-09-24T00:52:19.309Z,99.90
2017-09-24T00:55:24.447Z,99.90
2017-09-24T00:58:30.099Z,99.90
2017-09-24T01:01:35.663Z,99.90
2017-09-24T01:04:41.423Z,99.90
2017-09-24T01:07:48.283Z,99.90
2017-09-24T01:10:53.941Z,99.90
2017-09-24T01:14:00.252Z,99.90
2017-09-24T01:17:04.985Z,99.90
2017-09-24T01:20:10.708Z,99.90
2017-09-24T01:23:17.247Z,99.90
2017-09-24T01:26:22.575Z,99.90
2017-09-24T01:29:27.601Z,99.90
2017-09-24T01:32:32.629Z,99.90
2017-09-24T01:35:37.803Z,99.90
2017-09-24T01:38:44.295Z,99.90
2017-09-24T01:41:49.077Z,99.90
2017-09-24T01:44:54.843Z,99.90
2017-09-24T01:48:00.891Z,99.90
2017-09-24T01:51:07.683Z,99.90
2017-09-24T01:54:17.139Z,99.90
2017-09-24T01:57:22.928Z,99.90
2017-09-24T02:00:28.342Z,99.90
2017-09-24T02:03:33.741Z,99.90
2017-09-24T02:06:39.381Z,99.90
2017-09-24T02:09:45.837Z,99.90
2017-09-24T02:12:51.160Z,99.90
2017-09-24T02:15:56.379Z,99.90
2017-09-24T02:19:02.338Z,99.90
2017-09-24T02:22:07.856Z,99.90
2017-09-24T02:25:14.096Z,99.90
2017-09-24T02:28:20.619Z,99.90
2017-09-24T02:31:27.141Z,99.90
2017-09-24T02:34:32.454Z,99.90
2017-09-24T02:37:37.852Z,99.90
2017-09-24T02:40:43.858Z,99.90
2017-09-24T02:43:49.468Z,99.90
2017-09-24T02:46:55.122Z,99.90
2017-09-24T02:50:01.757Z,99.90
2017-09-24T02:53:07.464Z,99.90
2017-09-24T02:56:12.332Z,99.90
2017-09-24T02:59:17.302Z,99.90
2017-09-24T03:02:23.199Z,99.90
2017-09-24T03:05:28.535Z,99.90
2017-09-24T03:08:34.075Z,99.90
2017-09-24T03:11:38.948Z,99.90
2017-09-24T03:14:50.755Z,99.90
2017-09-24T03:17:57.851Z,99.90
2017-09-24T03:21:02.696Z,99.90
2017-09-24T03:24:08.046Z,99.90
2017-09-24T03:27:13.725Z,99.90
2017-09-24T03:30:19.701Z,99.90
2017-09-24T03:33:24.419Z,99.90
2017-09-24T03:36:29.324Z,99.90
2017-09-24T03:39:34.399Z,99.90
2017-09-24T03:42:39.644Z,99.90
2017-09-24T03:45:44.843Z,99.90
2017-09-24T03:48:50.531Z,99.90
2017-09-24T03:51:56.208Z,99.90
2017-09-24T03:55:01.061Z,99.90
2017-09-24T03:58:06.355Z,99.90
2017-09-24T04:01:11.588Z,99.90
2017-09-24T04:04:16.559Z,99.90
2017-09-24T04:07:22.236Z,99.90
2017-09-24T04:10:27.171Z,99.90
2017-09-24T04:13:33.471Z,99.90
2017-09-24T04:16:38.491Z,99.90
2017-09-24T04:19:43.407Z,99.90
2017-09-24T04:22:48.925Z,99.90
2017-09-24T04:25:53.941Z,99.90
2017-09-24T04:29:00.132Z,99.90
2017-09-24T04:32:05.119Z,99.90
2017-09-24T04:35:10.459Z,99.90
2017-09-24T04:38:17.772Z,99.90
2017-09-24T04:41:22.980Z,99.90
2017-09-24T04:44:28.605Z,99.90
2017-09-24T04:47:33.792Z,99.90
2017-09-24T04:50:41.622Z,99.90
2017-09-24T04:53:49.027Z,99.90
2017-09-24T04:56:54.262Z,99.90
2017-09-24T04:59:59.779Z,99.90
2017-09-24T05:03:05.037Z,99.90
2017-09-24T05:06:10.479Z,99.90
2017-09-24T05:09:16.106Z,99.90
2017-09-24T05:12:21.995Z,99.90
2017-09-24T05:15:27.216Z,99.90
2017-09-24T05:18:32.119Z,99.90
2017-09-24T05:21:37.177Z,99.90
2017-09-24T05:24:43.632Z,99.90
2017-09-24T05:27:49.295Z,99.90
2017-09-24T05:30:54.913Z,99.90
2017-09-24T05:33:59.763Z,99.90
2017-09-24T05:37:04.728Z,99.90
2017-09-24T05:40:10.519Z,99.90
2017-09-24T05:43:15.607Z,99.90
2017-09-24T05:46:21.539Z,99.90
2017-09-24T05:49:27.211Z,99.90
2017-09-24T05:52:32.174Z,99.90
2017-09-24T05:55:38.448Z,99.90
2017-09-24T05:58:43.632Z,99.90
2017-09-24T06:01:48.808Z,99.90
2017-09-24T06:04:55.157Z,99.90
2017-09-24T06:08:00.982Z,99.90
2017-09-24T06:11:09.868Z,99.90
2017-09-24T06:14:15.493Z,99.90
2017-09-24T06:17:22.253Z,99.90
2017-09-24T06:20:29.124Z,99.90
2017-09-24T06:23:34.304Z,99.90
2017-09-24T06:26:39.776Z,99.90
2017-09-24T06:29:44.504Z,99.90
2017-09-24T06:32:49.395Z,99.90
2017-09-24T06:35:54.552Z,99.90
2017-09-24T06:38:59.217Z,99.90
2017-09-24T06:42:05.339Z,99.90
2017-09-24T06:45:11.281Z,99.90
2017-09-24T06:48:17.676Z,99.90
2017-09-24T06:51:23.179Z,99.90
2017-09-24T06:54:28.648Z,99.90
2017-09-24T06:57:34.915Z,99.90
2017-09-24T07:00:39.576Z,99.90
2017-09-24T07:03:45.142Z,99.90
2017-09-24T07:06:49.888Z,99.90
2017-09-24T07:09:54.743Z,99.90
2017-09-24T07:13:00.307Z,99.90
2017-09-24T07:16:05.557Z,99.90
2017-09-24T07:19:10.719Z,99.90
2017-09-24T07:22:17.649Z,99.90
2017-09-24T07:25:24.224Z,99.90
2017-09-24T07:28:30.814Z,99.90
2017-09-24T07:31:36.425Z,99.90
2017-09-24T07:34:41.952Z,99.90
2017-09-24T07:37:47.273Z,99.90
2017-09-24T07:40:52.283Z,99.90
2017-09-24T07:43:57.030Z,99.90
2017-09-24T07:47:04.341Z,99.90
2017-09-24T07:50:09.861Z,99.90
2017-09-24T07:53:14.760Z,99.90
2017-09-24T07:56:20.244Z,99.90
2017-09-24T07:59:25.178Z,99.90
2017-09-24T08:02:31.298Z,99.90
2017-09-24T08:05:37.051Z,99.90
2017-09-24T08:08:42.083Z,99.90
2017-09-24T08:11:47.908Z,99.90
2017-09-24T08:14:52.996Z,99.90
2017-09-24T08:17:59.612Z,99.90
2017-09-24T08:21:05.058Z,99.90
2017-09-24T08:24:11.480Z,99.90
2017-09-24T08:27:16.636Z,99.90
2017-09-24T08:30:22.557Z,99.90
2017-09-24T08:33:27.656Z,99.90
2017-09-24T08:36:32.640Z,99.90
2017-09-24T08:39:38.472Z,99.40
2017-09-24T08:42:43.709Z,99.30
2017-09-24T08:45:48.665Z,99.10
2017-09-24T08:48:54.374Z,98.60
2017-09-24T08:51:59.112Z,98.90
2017-09-24T08:55:04.515Z,98.00
2017-09-24T08:58:11.087Z,98.00
2017-09-24T09:01:16.783Z,97.10
2017-09-24T09:04:21.835Z,97.60
2017-09-24T09:07:27.430Z,96.00
2017-09-24T09:10:32.365Z,94.30
2017-09-24T09:13:37.591Z,94.10
2017-09-24T09:16:42.448Z,95.00
2017-09-24T09:19:47.879Z,93.40
2017-09-24T09:22:53.420Z,92.90
2017-09-24T09:25:59.456Z,92.90
2017-09-24T09:29:04.410Z,93.00
2017-09-24T09:32:09.629Z,92.10
2017-09-24T09:35:33.675Z,91.50
2017-09-24T09:38:39.340Z,91.20
2017-09-24T09:41:46.983Z,90.30
2017-09-24T09:45:05.020Z,90.30
2017-09-24T09:48:10.105Z,89.70
2017-09-24T09:51:15.508Z,89.10
2017-09-24T09:54:20.628Z,90.00
2017-09-24T09:57:26.253Z,91.00
2017-09-24T10:00:31.494Z,89.70
2017-09-24T10:03:36.681Z,90.00
2017-09-24T10:06:53.484Z,90.50
2017-09-24T10:10:10.436Z,90.10
2017-09-24T10:13:16.086Z,90.30
2017-09-24T10:16:22.080Z,89.10
2017-09-24T10:19:27.699Z,88.20
2017-09-24T10:22:33.604Z,88.40
2017-09-24T10:25:38.836Z,87.70
2017-09-24T10:28:56.177Z,88.20
2017-09-24T10:32:14.267Z,88.20
2017-09-24T10:35:19.521Z,88.60
2017-09-24T10:38:25.960Z,88.70
2017-09-24T10:41:31.076Z,88.60
2017-09-24T10:44:37.859Z,90.30
2017-09-24T10:47:43.439Z,90.30
2017-09-24T10:50:49.430Z,88.80
2017-09-24T10:53:55.244Z,84.20
2017-09-24T10:57:00.758Z,84.20
2017-09-24T11:00:05.824Z,83.70
2017-09-24T11:03:11.109Z,85.80
2017-09-24T11:06:15.916Z,84.80
2017-09-24T11:09:21.343Z,78.90
2017-09-24T11:12:26.867Z,78.90
2017-09-24T11:15:31.889Z,80.20
2017-09-24T11:18:37.464Z,79.60
2017-09-24T11:21:43.228Z,78.90
2017-09-24T11:24:47.914Z,79.90
2017-09-24T11:27:53.396Z,77.90
2017-09-24T11:30:58.292Z,78.10
2017-09-24T11:34:04.064Z,79.20
2017-09-24T11:37:09.679Z,79.50
2017-09-24T11:40:15.223Z,78.90
2017-09-24T11:43:20.765Z,76.70
2017-09-24T11:46:25.900Z,77.90
2017-09-24T11:49:31.690Z,76.90
2017-09-24T11:52:37.187Z,77.00
2017-09-24T11:55:42.891Z,78.10
2017-09-24T11:58:48.224Z,77.50
2017-09-24T12:01:53.108Z,78.00
2017-09-24T12:05:00.744Z,75.30
2017-09-24T12:08:05.624Z,76.90
2017-09-24T12:11:11.839Z,75.90
2017-09-24T12:14:18.348Z,76.30
2017-09-24T12:17:23.248Z,75.50
2017-09-24T12:20:28.689Z,76.60
2017-09-24T12:23:34.679Z,75.00
2017-09-24T12:26:39.780Z,74.90
2017-09-24T12:29:44.825Z,73.00
2017-09-24T12:32:50.121Z,76.60
2017-09-24T12:35:55.360Z,75.00
2017-09-24T12:39:01.031Z,75.80
2017-09-24T12:42:06.117Z,76.70
2017-09-24T12:45:11.556Z,74.30
2017-09-24T12:48:16.340Z,75.30
2017-09-24T12:51:22.188Z,74.10
2017-09-24T12:54:27.732Z,74.20
2017-09-24T12:57:33.324Z,75.40
2017-09-24T13:00:39.148Z,74.50
2017-09-24T13:03:44.563Z,73.10
2017-09-24T13:06:49.652Z,73.10
2017-09-24T13:09:54.364Z,73.00
2017-09-24T13:12:59.935Z,73.20
2017-09-24T13:16:04.763Z,71.80
2017-09-24T13:19:10.584Z,72.10
2017-09-24T13:22:15.172Z,72.10
2017-09-24T13:25:20.295Z,70.30
2017-09-24T13:28:26.014Z,71.40
2017-09-24T13:31:30.938Z,67.60
2017-09-24T13:34:35.915Z,67.60
2017-09-24T13:37:40.811Z,69.00
2017-09-24T13:40:46.311Z,66.60
2017-09-24T13:43:52.100Z,67.40
2017-09-24T13:46:57.619Z,68.10
2017-09-24T13:50:02.220Z,67.90
2017-09-24T13:53:07.099Z,68.40
2017-09-24T13:56:13.421Z,68.30
2017-09-24T13:59:19.343Z,68.30
2017-09-24T14:02:24.596Z,67.30
2017-09-24T14:05:29.983Z,69.00
2017-09-24T14:08:35.919Z,70.20
2017-09-24T14:11:41.464Z,68.40
2017-09-24T14:14:46.313Z,67.70
2017-09-24T14:17:51.818Z,69.50
2017-09-24T14:20:58.024Z,72.40
2017-09-24T14:24:02.719Z,72.30
2017-09-24T14:27:08.079Z,70.80
2017-09-24T14:30:13.011Z,72.10
2017-09-24T14:33:18.097Z,71.80
2017-09-24T14:36:23.135Z,72.10
2017-09-24T14:39:27.919Z,72.80
2017-09-24T14:42:33.056Z,71.90
2017-09-24T14:45:38.817Z,74.30
2017-09-24T14:48:44.666Z,75.80
2017-09-24T14:51:50.378Z,75.90
2017-09-24T14:54:55.455Z,75.90
2017-09-24T14:58:01.269Z,76.60
2017-09-24T15:01:06.451Z,76.30
2017-09-24T15:04:11.888Z,75.40
2017-09-24T15:07:17.336Z,75.30
2017-09-24T15:10:22.711Z,76.20
2017-09-24T15:13:27.904Z,78.10
2017-09-24T15:16:32.796Z,79.10
2017-09-24T15:19:37.901Z,78.80
2017-09-24T15:22:44.051Z,78.80
2017-09-24T15:25:49.046Z,79.00
2017-09-24T15:28:53.959Z,79.70
2017-09-24T15:32:00.039Z,81.20
2017-09-24T15:35:04.993Z,81.20
2017-09-24T15:38:10.294Z,81.80
2017-09-24T15:41:15.820Z,82.60
2017-09-24T15:44:21.679Z,83.00
2017-09-24T15:47:26.599Z,83.00
2017-09-24T15:50:32.416Z,85.20
2017-09-24T15:53:37.414Z,85.10
2017-09-24T15:56:42.296Z,85.70
2017-09-24T15:59:47.899Z,86.10
2017-09-24T16:02:53.016Z,86.10
2017-09-24T16:05:58.544Z,87.50
2017-09-24T16:09:03.302Z,87.20
2017-09-24T16:12:08.653Z,89.00
2017-09-24T16:15:14.067Z,89.50
2017-09-24T16:18:19.579Z,90.00
2017-09-24T16:21:24.897Z,90.20
2017-09-24T16:24:30.411Z,90.30
2017-09-24T16:27:36.211Z,90.80
2017-09-24T16:30:41.943Z,90.80
2017-09-24T16:33:48.524Z,91.10
2017-09-24T16:36:56.672Z,91.40
2017-09-24T16:40:02.077Z,91.60
2017-09-24T16:43:08.228Z,91.80
2017-09-24T16:46:13.971Z,91.80
2017-09-24T16:49:19.328Z,92.00
2017-09-24T16:52:24.472Z,92.20
2017-09-24T16:55:29.844Z,92.60
2017-09-24T16:58:36.133Z,93.20
2017-09-24T17:01:41.303Z,92.90
2017-09-24T17:04:47.543Z,93.30
2017-09-24T17:07:52.471Z,93.30
2017-09-24T17:10:58.092Z,93.60
2017-09-24T17:14:04.192Z,94.10
2017-09-24T17:17:17.657Z,94.10
2017-09-24T17:20:24.033Z,94.50
2017-09-24T17:23:29.604Z,94.20
2017-09-24T17:26:34.943Z,94.30
2017-09-24T17:29:39.680Z,94.40
2017-09-24T17:32:45.893Z,95.10
2017-09-24T17:35:51.384Z,94.80
2017-09-24T17:38:56.788Z,95.00
2017-09-24T17:42:02.125Z,95.40
2017-09-24T17:45:07.236Z,95.80
2017-09-24T17:48:12.031Z,95.70
2017-09-24T17:51:17.793Z,96.40
2017-09-24T17:54:22.915Z,96.40
2017-09-24T17:57:27.716Z,96.90
2017-09-24T18:00:33.053Z,97.20
2017-09-24T18:03:39.372Z,97.90
2017-09-24T18:06:44.483Z,97.80
2017-09-24T18:09:49.651Z,97.80
2017-09-24T18:12:55.076Z,97.60
2017-09-24T18:16:00.586Z,97.50
2017-09-24T18:19:06.258Z,97.60
2017-09-24T18:22:11.844Z,97.80
2017-09-24T18:25:17.370Z,97.70
2017-09-24T18:28:22.232Z,97.70
2017-09-24T18:31:27.716Z,97.70
2017-09-24T18:34:34.392Z,97.60
2017-09-24T18:37:40.482Z,97.60
2017-09-24T18:40:45.576Z,97.60
2017-09-24T18:43:50.945Z,97.60
2017-09-24T18:46:57.313Z,97.80
2017-09-24T18:50:03.171Z,97.90
2017-09-24T18:53:08.084Z,97.90
2017-09-24T18:56:12.851Z,98.00
2017-09-24T18:59:18.441Z,98.10
2017-09-24T19:02:24.009Z,98.20
2017-09-24T19:05:29.259Z,98.60
2017-09-24T19:08:34.808Z,98.50
2017-09-24T19:11:39.864Z,99.00
2017-09-24T19:14:45.355Z,98.70
2017-09-24T19:17:50.291Z,98.90
2017-09-24T19:20:55.649Z,99.00
2017-09-24T19:24:00.825Z,99.00
2017-09-24T19:27:05.624Z,99.10
2017-09-24T19:30:11.205Z,99.20
2017-09-24T19:33:16.456Z,99.30
2017-09-24T19:36:22.804Z,99.80
2017-09-24T19:39:28.567Z,99.80
2017-09-24T19:42:34.132Z,99.90
2017-09-24T19:45:38.984Z,99.90
2017-09-24T19:48:44.522Z,99.90
2017-09-24T19:51:49.724Z,99.90
2017-09-24T19:54:55.144Z,99.90
2017-09-24T19:58:00.536Z,99.90
2017-09-24T20:01:05.756Z,99.90
2017-09-24T20:04:10.708Z,99.90
2017-09-24T20:07:16.075Z,99.90
2017-09-24T20:10:20.884Z,99.90
2017-09-24T20:13:25.785Z,99.90
2017-09-24T20:16:31.222Z,99.90
2017-09-24T20:19:35.908Z,99.90
2017-09-24T20:22:40.889Z,99.90
2017-09-24T20:25:46.279Z,99.90
2017-09-24T20:28:51.407Z,99.90
2017-09-24T20:31:57.365Z,99.90
2017-09-24T20:35:03.410Z,99.90
2017-09-24T20:38:08.748Z,99.90
2017-09-24T20:41:14.072Z,99.90
2017-09-24T20:44:18.927Z,99.90
2017-09-24T20:47:24.183Z,99.90
2017-09-24T20:50:29.422Z,99.90
2017-09-24T20:53:35.685Z,99.90
2017-09-24T20:56:40.759Z,99.90
2017-09-24T20:59:46.303Z,99.90
2017-09-24T21:02:51.320Z,99.90
2017-09-24T21:05:56.303Z,99.90
2017-09-24T21:09:01.697Z,99.90
2017-09-24T21:12:07.105Z,99.90
2017-09-24T21:15:12.546Z,99.90
2017-09-24T21:18:17.651Z,99.90
2017-09-24T21:21:23.371Z,99.90
2017-09-24T21:24:29.820Z,99.90
2017-09-24T21:27:34.839Z,99.90
2017-09-24T21:30:40.601Z,99.90
2017-09-24T21:33:45.743Z,99.90
2017-09-24T21:36:50.991Z,99.90
2017-09-24T21:39:56.656Z,99.90
2017-09-24T21:43:02.203Z,99.90
2017-09-24T21:46:07.615Z,99.90
2017-09-24T21:49:12.944Z,99.90
2017-09-24T21:52:18.455Z,99.90
2017-09-24T21:55:23.351Z,99.90
2017-09-24T21:58:28.644Z,99.90
2017-09-24T22:01:34.352Z,99.90
2017-09-24T22:04:39.275Z,99.90
2017-09-24T22:07:44.480Z,99.90
2017-09-24T22:10:50.781Z,99.90
2017-09-24T22:13:55.567Z,99.90
2017-09-24T22:17:01.196Z,99.90
2017-09-24T22:20:06.265Z,99.90
2017-09-24T22:23:12.257Z,99.90
2017-09-24T22:26:18.438Z,99.90
2017-09-24T22:29:24.538Z,99.90
2017-09-24T22:32:29.623Z,99.90
2017-09-24T22:35:35.103Z,99.90
2017-09-24T22:38:40.081Z,99.90
2017-09-24T22:41:45.513Z,99.90
2017-09-24T22:44:51.752Z,99.90
2017-09-24T22:47:57.283Z,99.90
2017-09-24T22:51:02.947Z,99.90
2017-09-24T22:54:08.243Z,99.90
2017-09-24T22:57:13.710Z,99.90
2017-09-24T23:00:18.995Z,99.90
2017-09-24T23:03:24.953Z,99.90
2017-09-24T23:06:31.380Z,99.90
2017-09-24T23:09:36.440Z,99.90
2017-09-24T23:12:41.639Z,99.90
2017-09-24T23:15:47.177Z,99.90
2017-09-24T23:18:52.579Z,99.90
2017-09-24T23:21:57.884Z,99.90
2017-09-24T23:25:03.594Z,99.90
2017-09-24T23:28:08.666Z,99.90
2017-09-24T23:31:14.820Z,99.90
2017-09-24T23:34:20.201Z,99.90
2017-09-24T23:37:26.096Z,99.90
2017-09-24T23:40:31.703Z,99.90
2017-09-24T23:43:37.344Z,99.90
2017-09-24T23:46:42.758Z,99.90
2017-09-24T23:49:49.095Z,99.90
2017-09-24T23:52:54.369Z,99.90
2017-09-24T23:55:59.695Z,99.90
2017-09-24T23:59:05.254Z,99.90
